Ash Lake, Minnesota
Current Conditions -  °F | °C
As of 8:13 AM on Friday 24 Oct 2014 (Local Time) from KORB Reporting Station
Scattered Clouds Scattered Clouds  
Wind Chill: 50°   Ceiling: Unl
Heat Index: 50°   Visibility: 10mi
Dew Point: 41°   Wind: 7mph
Humidity: 71%   Direction: 180°S
Pressure: 29.77"   Gusts: NA
Location:  48.1455°N, 92.8504°W
Report Text: KORB 241313Z AUTO 18006KT 10SM SCT110 10/05 A2977 RMK AO2
Loading
Personal Weather Stations






























Interactive Weather Map
Tropical Storm Tracking
New forecast layout! Learn more

10-Day Weather Forecast

Advertisements
Track Severe Weather on mobile